Miami, Florida
Traffic Map
Current Weather Conditions
Miami, Florida
Scattered Clouds
Scattered Clouds
81°
Feels Like: 86°
Wind Chill: 81° Ceiling: Unl
Heat Index: 86° Visibility: 10mi
Dew Point: 73° Wind: 3mph
Humidity: 77% Direction: 360° (N)
Pressure: 29.96in Gusts: 0mph
Raw Report DataKMIA 231153Z 36003KT 10SM FEW025 SCT250 27/23 A2996 RMK AO2 SLP146 CB DSNT SW T02720228 10278 20256 51011 $
Traffic Incident Summary
Active as of:
Severity:
Category:
InformationThere was an issue retrieving the traffic information for this location. Please try a different location or try again shortly.
Advertisements